Time;durP1;ratioP1;P1;durP2;ratioP2;P2;SDS_P1;SDS_P2;PMS_P1;PMS_P2;Temp;Humidity;BMP_temperature;BMP_pressure;BME280_temperature;BME280_humidity;BME280_pressure;Samples;Min_cycle;Max_cycle;Signal;HPM_P1;HPM_P2
2022/10/26 00:00:32;;;;;;;10.00;3.57;;;;;;;8.63;100.00;101284.69;4995563;28;20500;-72
2022/10/26 00:02:58;;;;;;;7.97;4.27;;;;;;;8.54;100.00;101293.38;4979734;28;20977;-72
2022/10/26 00:05:25;;;;;;;7.40;3.20;;;;;;;8.52;100.00;101294.72;4976303;28;20453;-73
2022/10/26 00:07:51;;;;;;;7.90;4.00;;;;;;;8.57;100.00;101289.31;4988932;28;20464;-72
2022/10/26 00:10:20;;;;;;;8.87;3.50;;;;;;;8.57;100.00;101290.09;4995491;28;20476;-72
2022/10/26 00:12:48;;;;;;;8.07;4.07;;;;;;;8.58;100.00;101289.03;4984022;28;20504;-72
2022/10/26 00:15:15;;;;;;;13.73;4.10;;;;;;;8.53;100.00;101293.63;4977852;28;20991;-72
2022/10/26 00:17:43;;;;;;;9.93;4.10;;;;;;;8.57;100.00;101295.50;4987718;28;20464;-73
2022/10/26 00:20:10;;;;;;;8.43;3.70;;;;;;;8.60;100.00;101291.47;4995392;28;20493;-72
2022/10/26 00:22:37;;;;;;;9.50;3.63;;;;;;;8.56;100.00;101299.28;4985330;28;20465;-72
2022/10/26 00:25:04;;;;;;;10.20;3.87;;;;;;;8.54;100.00;101297.94;4976069;28;20826;-72
2022/10/26 00:27:33;;;;;;;7.90;3.50;;;;;;;8.52;100.00;101298.22;4986117;28;20490;-72
2022/10/26 00:29:59;;;;;;;8.50;4.03;;;;;;;8.58;100.00;101296.31;4994954;28;20564;-72
2022/10/26 00:32:26;;;;;;;9.23;3.30;;;;;;;8.53;100.00;101304.41;4986392;28;20453;-72
2022/10/26 00:34:53;;;;;;;6.90;3.13;;;;;;;8.40;100.00;101307.66;4975693;28;20509;-72
2022/10/26 00:37:20;;;;;;;7.27;3.67;;;;;;;8.40;100.00;101310.34;4978793;28;20461;-72
2022/10/26 00:39:46;;;;;;;5.93;2.60;;;;;;;8.29;100.00;101307.63;4981150;28;20493;-72
2022/10/26 00:42:17;;;;;;;10.87;3.80;;;;;;;8.28;100.00;101308.69;4979664;28;20941;-72
2022/10/26 00:45:04;;;;;;;7.33;3.13;;;;;;;8.28;100.00;101310.59;4995057;28;20432;-72
2022/10/26 00:47:38;;;;;;;7.90;3.63;;;;;;;8.22;100.00;101307.06;4993509;28;20453;-72
2022/10/26 00:50:10;;;;;;;8.10;3.33;;;;;;;8.22;100.00;101311.63;4993495;28;20480;-72
2022/10/26 00:52:37;;;;;;;6.53;2.87;;;;;;;8.16;100.00;101312.72;4990333;28;20973;-73
2022/10/26 00:55:05;;;;;;;7.80;2.83;;;;;;;8.26;100.00;101305.44;4994994;28;20487;-73
2022/10/26 00:57:32;;;;;;;9.47;3.43;;;;;;;8.25;100.00;101305.72;4993595;28;20516;-72
2022/10/26 01:00:00;;;;;;;7.57;3.63;;;;;;;8.33;100.00;101308.69;4994569;28;20473;-73
2022/10/26 01:02:26;;;;;;;8.43;3.73;;;;;;;8.38;100.00;101309.81;4991753;28;20457;-72
2022/10/26 01:04:54;;;;;;;7.53;3.67;;;;;;;8.31;100.00;101307.34;4975213;28;20449;-72
2022/10/26 01:07:22;;;;;;;6.03;2.57;;;;;;;8.35;100.00;101309.22;4978080;28;20539;-72
2022/10/26 01:09:48;;;;;;;9.23;3.50;;;;;;;8.29;100.00;101304.91;4994586;28;20591;-72
2022/10/26 01:12:15;;;;;;;7.57;3.53;;;;;;;8.37;100.00;101306.31;4991183;28;21163;-72
2022/10/26 01:14:41;;;;;;;7.30;3.10;;;;;;;8.37;100.00;101298.22;4977067;28;20462;-72
2022/10/26 01:17:20;;;;;;;7.90;2.83;;;;;;;8.44;100.00;101297.94;4975242;28;20473;-73
2022/10/26 01:20:17;;;;;;;6.50;3.23;;;;;;;8.28;100.00;101297.91;4975147;28;20472;-72
2022/10/26 01:22:51;;;;;;;8.73;3.20;;;;;;;8.23;100.00;101289.78;4982521;28;20469;-73
2022/10/26 01:25:37;;;;;;;9.43;2.87;;;;;;;8.28;100.00;101294.41;4993957;28;20832;-69
2022/10/26 01:28:12;;;;;;;7.60;3.00;;;;;;;8.17;100.00;101293.56;4984050;28;20462;-68
2022/10/26 01:30:43;;;;;;;6.97;2.77;;;;;;;8.14;100.00;101291.38;4974373;28;20988;-70
2022/10/26 01:33:22;;;;;;;9.03;3.27;;;;;;;8.08;100.00;101293.25;4986580;28;20461;-73
2022/10/26 01:36:01;;;;;;;6.77;3.00;;;;;;;8.02;100.00;101286.25;4993886;28;20947;-71
2022/10/26 01:38:35;;;;;;;12.63;4.20;;;;;;;8.07;100.00;101282.75;4979288;28;20468;-70
2022/10/26 01:41:08;;;;;;;8.27;3.43;;;;;;;8.09;100.00;101281.38;4974557;28;20519;-71
2022/10/26 01:43:38;;;;;;;6.13;2.70;;;;;;;8.14;100.00;101277.09;4974424;28;20450;-71
2022/10/26 01:46:08;;;;;;;7.73;3.03;;;;;;;7.98;100.00;101284.34;4986182;28;20465;-70
2022/10/26 01:48:36;;;;;;;11.13;2.90;;;;;;;8.02;100.00;101278.16;4985466;28;20473;-70
2022/10/26 01:51:04;;;;;;;6.60;2.73;;;;;;;8.08;100.00;101281.66;4975046;28;20888;-70
2022/10/26 01:53:30;;;;;;;5.40;2.70;;;;;;;8.11;100.00;101281.16;4974191;28;20862;-70
2022/10/26 01:55:58;;;;;;;7.00;3.30;;;;;;;8.03;100.00;101281.66;4982308;28;20990;-71
2022/10/26 01:58:44;;;;;;;7.53;3.40;;;;;;;8.04;100.00;101283.28;4991501;28;20869;-71
2022/10/26 02:01:30;;;;;;;7.27;3.27;;;;;;;8.11;100.00;101274.94;4973951;28;20908;-70
2022/10/26 02:04:05;;;;;;;6.10;2.63;;;;;;;8.07;100.00;101270.06;4980806;28;20460;-70
2022/10/26 02:06:44;;;;;;;8.00;2.53;;;;;;;8.13;100.00;101265.47;4992596;28;20467;-71
2022/10/26 02:09:23;;;;;;;5.83;2.70;;;;;;;8.18;100.00;101262.78;4986443;28;20512;-71
2022/10/26 02:11:53;;;;;;;7.47;3.40;;;;;;;8.05;100.00;101268.69;4976994;28;20784;-72
2022/10/26 02:14:24;;;;;;;11.30;2.87;;;;;;;8.08;100.00;101268.19;4993780;28;20452;-71
2022/10/26 02:16:57;;;;;;;9.87;3.27;;;;;;;8.03;100.00;101262.78;4992439;28;20461;-71
2022/10/26 02:19:38;;;;;;;6.47;2.90;;;;;;;7.93;100.00;101257.38;4990325;28;20461;-72
2022/10/26 02:22:12;;;;;;;10.73;3.47;;;;;;;7.93;100.00;101260.06;4974255;28;20469;-71
2022/10/26 02:24:41;;;;;;;7.73;3.03;;;;;;;7.99;100.00;101265.19;4979501;28;20463;-71
2022/10/26 02:27:10;;;;;;;7.07;3.00;;;;;;;7.86;100.00;101264.91;4993596;28;20940;-71
2022/10/26 02:29:38;;;;;;;12.90;3.53;;;;;;;7.77;100.00;101262.72;4989002;28;20469;-71
2022/10/26 02:32:08;;;;;;;9.13;3.43;;;;;;;7.72;100.00;101259.19;4974213;28;20437;-68
2022/10/26 02:34:37;;;;;;;8.00;3.07;;;;;;;7.73;100.00;101266.19;4978798;28;20476;-69
2022/10/26 02:37:04;;;;;;;7.40;3.27;;;;;;;7.72;100.00;101260.00;4993393;28;20455;-70
2022/10/26 02:39:34;;;;;;;5.97;2.90;;;;;;;7.73;100.00;101266.19;4989120;28;20469;-72
2022/10/26 02:42:04;;;;;;;9.20;2.80;;;;;;;7.75;100.00;101267.56;4993379;28;20476;-71
2022/10/26 02:44:36;;;;;;;7.80;2.90;;;;;;;7.82;100.00;101259.22;4991860;28;20967;-70
2022/10/26 02:47:02;;;;;;;8.90;2.93;;;;;;;7.83;100.00;101264.38;4993472;28;20429;-71
2022/10/26 02:49:30;;;;;;;5.60;2.40;;;;;;;7.80;100.00;101280.25;4990309;28;20465;-71
2022/10/26 02:52:04;;;;;;;7.10;2.90;;;;;;;7.86;100.00;101272.97;4973966;28;20445;-71
2022/10/26 02:54:35;;;;;;;6.97;3.33;;;;;;;7.82;100.00;101272.69;4977364;28;20986;-71
2022/10/26 02:57:10;;;;;;;13.23;3.87;;;;;;;7.86;100.00;101267.59;4993251;28;20405;-70
2022/10/26 02:59:41;;;;;;;6.57;2.70;;;;;;;7.87;100.00;101267.31;4988986;28;20465;-71
2022/10/26 03:02:08;;;;;;;8.93;3.17;;;;;;;7.85;100.00;101269.47;4993456;28;20473;-71
2022/10/26 03:04:35;;;;;;;7.83;2.90;;;;;;;7.85;100.00;101258.69;4991940;28;20468;-71
2022/10/26 03:07:02;;;;;;;12.50;3.53;;;;;;;7.85;100.00;101272.19;4996320;28;20457;-70
2022/10/26 03:09:28;;;;;;;17.60;2.73;;;;;;;7.84;100.00;101270.56;4994599;28;20465;-71
2022/10/26 03:11:55;;;;;;;7.47;2.63;;;;;;;7.88;100.00;101268.13;4977424;28;20449;-71
2022/10/26 03:14:22;;;;;;;7.20;3.33;;;;;;;7.86;100.00;101264.91;4977065;28;20515;-72
2022/10/26 03:16:48;;;;;;;10.10;3.63;;;;;;;7.82;100.00;101275.41;4976959;28;21019;-71
2022/10/26 03:19:15;;;;;;;10.03;3.43;;;;;;;7.64;100.00;101271.28;4978728;28;20465;-71
2022/10/26 03:21:43;;;;;;;7.90;3.10;;;;;;;7.57;100.00;101270.75;4978137;28;20545;-70
2022/10/26 03:24:09;;;;;;;8.80;3.27;;;;;;;7.51;100.00;101269.88;4978599;28;20471;-70
2022/10/26 03:26:36;;;;;;;15.73;3.33;;;;;;;7.47;100.00;101266.09;4996547;28;20452;-69
2022/10/26 03:29:02;;;;;;;6.77;2.90;;;;;;;7.43;100.00;101273.09;4978278;28;20960;-69
2022/10/26 03:31:29;;;;;;;6.60;3.13;;;;;;;7.43;100.00;101274.97;5002084;23;20564;-69
2022/10/26 03:33:55;;;;;;;6.83;3.00;;;;;;;7.48;100.00;101270.44;4976850;28;20490;-70
2022/10/26 03:36:22;;;;;;;6.47;2.90;;;;;;;7.55;100.00;101275.56;4976125;28;20461;-71
2022/10/26 03:38:49;;;;;;;4.97;2.00;;;;;;;7.55;100.00;101264.78;4976814;28;20446;-70
2022/10/26 03:41:16;;;;;;;7.23;3.40;;;;;;;7.58;100.00;101277.75;4968341;28;20497;-70
2022/10/26 03:43:42;;;;;;;7.03;3.10;;;;;;;7.65;100.00;101266.72;4957524;29;20447;-70
2022/10/26 03:46:09;;;;;;;10.37;3.30;;;;;;;7.73;100.00;101279.69;4956329;28;20462;-70
2022/10/26 03:48:35;;;;;;;10.17;3.70;;;;;;;7.63;100.00;101271.56;4957304;28;20450;-70
2022/10/26 03:51:01;;;;;;;7.40;2.83;;;;;;;7.62;100.00;101275.34;4958950;28;20910;-70
2022/10/26 03:53:28;;;;;;;8.40;2.97;;;;;;;7.59;100.00;101272.09;4957146;29;20452;-72
2022/10/26 03:55:56;;;;;;;8.53;4.03;;;;;;;7.62;100.00;101275.34;4956570;28;20546;-71
2022/10/26 03:58:22;;;;;;;6.67;3.00;;;;;;;7.57;100.00;101273.44;4957187;28;20455;-71
2022/10/26 04:00:48;;;;;;;8.43;3.30;;;;;;;7.63;100.00;101272.38;4958906;28;20510;-71
2022/10/26 04:03:15;;;;;;;6.23;2.50;;;;;;;7.63;100.00;101282.34;4956966;29;20486;-70
2022/10/26 04:05:41;;;;;;;7.77;2.90;;;;;;;7.63;100.00;101272.38;4956258;28;20530;-71
2022/10/26 04:08:08;;;;;;;6.27;2.60;;;;;;;7.67;100.00;101276.16;4957190;28;20446;-71
2022/10/26 04:10:35;;;;;;;6.83;2.87;;;;;;;7.61;100.00;101274.50;4954873;28;20900;-72
2022/10/26 04:13:03;;;;;;;6.53;2.97;;;;;;;7.52;100.00;101276.09;4959136;28;20530;-71
2022/10/26 04:15:29;;;;;;;11.10;4.03;;;;;;;7.43;100.00;101273.09;4955858;28;20563;-71
2022/10/26 04:17:56;;;;;;;7.40;3.00;;;;;;;7.34;100.00;101275.47;4956121;28;20462;-71
2022/10/26 04:20:23;;;;;;;8.07;3.27;;;;;;;7.36;100.00;101280.63;4956745;28;20545;-71
2022/10/26 04:22:57;;;;;;;8.90;2.87;;;;;;;7.28;100.00;101283.81;4958437;28;20494;-71
2022/10/26 04:25:23;;;;;;;7.00;2.87;;;;;;;7.26;100.00;101273.31;4956711;29;20441;-71
2022/10/26 04:27:50;;;;;;;6.93;2.80;;;;;;;7.31;100.00;101281.41;4955654;28;20954;-70
2022/10/26 04:30:17;;;;;;;11.73;3.30;;;;;;;7.44;100.00;101279.31;4956201;28;20435;-71
2022/10/26 04:32:44;;;;;;;7.20;3.60;;;;;;;7.53;100.00;101277.75;4958319;28;20462;-73
2022/10/26 04:35:10;;;;;;;8.00;3.07;;;;;;;7.48;100.00;101281.22;4956495;29;20459;-72
2022/10/26 04:37:37;;;;;;;8.47;3.07;;;;;;;7.46;100.00;101277.16;4955481;28;20510;-71
2022/10/26 04:40:03;;;;;;;6.13;2.63;;;;;;;7.51;100.00;101275.28;4956387;28;20794;-70
2022/10/26 04:42:32;;;;;;;6.97;2.27;;;;;;;7.49;100.00;101276.63;4958478;28;20537;-73
2022/10/26 04:44:59;;;;;;;6.27;2.33;;;;;;;7.45;100.00;101276.34;4956369;29;20457;-70
2022/10/26 04:47:27;;;;;;;7.80;2.80;;;;;;;7.45;100.00;101270.16;4951974;28;20929;-69
2022/10/26 04:49:53;;;;;;;6.70;2.60;;;;;;;7.48;100.00;101278.53;4937124;29;20455;-69
2022/10/26 04:52:20;;;;;;;8.73;3.23;;;;;;;7.48;100.00;101278.53;4952735;28;20537;-71
2022/10/26 04:54:46;;;;;;;7.00;2.83;;;;;;;7.46;100.00;101277.16;4955299;28;20471;-70
2022/10/26 04:57:12;;;;;;;6.73;2.30;;;;;;;7.47;100.00;101273.38;4956143;28;20451;-70
2022/10/26 04:59:39;;;;;;;7.47;3.40;;;;;;;7.51;100.00;101274.47;4955075;28;20889;-70
2022/10/26 05:02:05;;;;;;;7.00;2.70;;;;;;;7.50;100.00;101275.56;4957338;28;20493;-69
2022/10/26 05:04:33;;;;;;;10.37;3.50;;;;;;;7.40;100.00;101270.94;4956320;29;20447;-74
2022/10/26 05:06:59;;;;;;;7.00;3.20;;;;;;;7.41;100.00;101285.22;4955039;28;20471;-71
2022/10/26 05:09:26;;;;;;;10.37;3.10;;;;;;;7.33;100.00;101278.44;4955591;28;20950;-69
2022/10/26 05:11:52;;;;;;;6.73;2.87;;;;;;;7.21;100.00;101275.94;4957933;28;20515;-69
2022/10/26 05:14:18;;;;;;;7.40;3.30;;;;;;;7.18;100.00;101276.50;4936417;29;20444;-69
2022/10/26 05:16:45;;;;;;;7.33;2.73;;;;;;;7.12;100.00;101279.41;4951140;28;20470;-68
2022/10/26 05:19:11;;;;;;;6.90;2.57;;;;;;;7.11;100.00;101275.09;4955260;28;20473;-68
2022/10/26 05:21:39;;;;;;;8.97;2.70;;;;;;;7.04;100.00;101272.63;4957797;28;20505;-68
2022/10/26 05:24:06;;;;;;;7.60;3.13;;;;;;;6.97;100.00;101272.03;4955590;29;20450;-68
2022/10/26 05:26:33;;;;;;;7.80;3.50;;;;;;;7.05;100.00;101272.38;4966157;28;20466;-68
2022/10/26 05:28:59;;;;;;;7.63;2.90;;;;;;;7.13;100.00;101270.22;4974341;28;20450;-68
2022/10/26 05:31:26;;;;;;;6.00;2.80;;;;;;;7.20;100.00;101266.25;4974383;28;20552;-68
2022/10/26 05:33:52;;;;;;;8.70;3.50;;;;;;;7.26;100.00;101262.53;4974829;28;20496;-69
2022/10/26 05:36:19;;;;;;;8.30;3.20;;;;;;;7.26;100.00;101277.84;4974775;28;20843;-68
2022/10/26 05:38:47;;;;;;;6.27;2.53;;;;;;;7.16;100.00;101270.53;4974771;28;20441;-68
2022/10/26 05:41:13;;;;;;;6.90;2.77;;;;;;;7.24;100.00;101275.44;4974604;28;20493;-68
2022/10/26 05:43:40;;;;;;;6.70;3.03;;;;;;;7.27;100.00;101280.31;4974507;28;20500;-68
2022/10/26 05:46:06;;;;;;;8.33;3.30;;;;;;;7.26;100.00;101272.47;4974670;28;20442;-69
2022/10/26 05:48:33;;;;;;;7.10;2.60;;;;;;;7.29;100.00;101283.53;4974605;28;20442;-68
2022/10/26 05:51:00;;;;;;;7.83;2.83;;;;;;;7.31;100.00;101281.41;4974474;28;20462;-68
2022/10/26 05:53:26;;;;;;;8.07;3.47;;;;;;;7.27;100.00;101290.28;4974545;28;20552;-69
2022/10/26 05:55:55;;;;;;;5.80;2.40;;;;;;;7.31;100.00;101286.78;4974577;28;20446;-69
2022/10/26 05:58:22;;;;;;;8.60;2.37;;;;;;;7.34;100.00;101291.63;4974364;28;20964;-71
2022/10/26 06:01:07;;;;;;;7.40;3.20;;;;;;;7.29;100.00;101283.53;4974528;28;20473;-72
2022/10/26 06:03:47;;;;;;;9.20;3.30;;;;;;;7.36;100.00;101287.91;4974248;28;21048;-74
2022/10/26 06:06:14;;;;;;;9.47;3.93;;;;;;;7.29;100.00;101288.94;4974513;28;20442;-70
2022/10/26 06:08:42;;;;;;;10.20;3.10;;;;;;;7.22;100.00;101282.97;4974398;28;20446;-69
2022/10/26 06:11:11;;;;;;;7.97;3.00;;;;;;;7.11;100.00;101294.75;4974338;28;20550;-70
2022/10/26 06:13:38;;;;;;;5.70;2.33;;;;;;;7.06;100.00;101300.13;4974314;28;20850;-69
2022/10/26 06:16:24;;;;;;;7.50;3.20;;;;;;;7.11;100.00;101292.06;4974275;28;20999;-70
2022/10/26 06:19:00;;;;;;;7.30;3.10;;;;;;;7.17;100.00;101306.34;4974383;28;20445;-70
2022/10/26 06:21:44;;;;;;;6.07;2.37;;;;;;;7.14;100.00;101296.94;4973905;28;20836;-70
2022/10/26 06:24:19;;;;;;;7.87;3.10;;;;;;;7.20;100.00;101301.28;4974372;28;20484;-70
2022/10/26 06:26:57;;;;;;;7.20;3.33;;;;;;;7.27;100.00;101309.13;4973965;28;20426;-70
2022/10/26 06:29:37;;;;;;;11.47;2.93;;;;;;;7.25;100.00;101306.69;4974229;28;20440;-70
2022/10/26 06:32:03;;;;;;;7.53;2.77;;;;;;;7.40;100.00;101308.66;4973970;28;20540;-70
2022/10/26 06:34:35;;;;;;;7.50;3.00;;;;;;;7.47;100.00;101311.13;4974337;28;20445;-70
2022/10/26 06:37:02;;;;;;;16.53;3.90;;;;;;;7.51;100.00;101318.41;4974194;28;20426;-70
2022/10/26 06:39:31;;;;;;;8.90;2.97;;;;;;;7.51;100.00;101317.59;4974195;28;20450;-71
2022/10/26 06:42:00;;;;;;;8.33;3.20;;;;;;;7.51;100.00;101312.22;4977126;28;20470;-67
2022/10/26 06:44:27;;;;;;;6.40;2.43;;;;;;;7.53;100.00;101312.78;4977757;28;20456;-71
2022/10/26 06:47:01;;;;;;;5.70;2.47;;;;;;;7.62;100.00;101318.47;4977546;28;20508;-70
2022/10/26 06:49:31;;;;;;;5.60;2.83;;;;;;;7.61;100.00;101316.84;4977807;28;20524;-71
2022/10/26 06:51:59;;;;;;;8.77;3.20;;;;;;;7.72;100.00;101315.81;4977465;28;20469;-70
2022/10/26 06:54:31;;;;;;;7.23;2.70;;;;;;;7.71;100.00;101314.22;4977978;28;20447;-69
2022/10/26 06:57:00;;;;;;;7.60;3.43;;;;;;;7.81;100.00;101322.31;4977706;28;20484;-69
2022/10/26 06:59:36;;;;;;;8.13;2.90;;;;;;;7.77;100.00;101315.84;4977606;28;20481;-69
2022/10/26 07:02:02;;;;;;;8.37;3.40;;;;;;;7.79;100.00;101314.50;4977553;28;20469;-69
2022/10/26 07:04:29;;;;;;;9.03;3.40;;;;;;;7.80;100.00;101308.03;4977622;28;20446;-69
2022/10/26 07:06:55;;;;;;;6.83;2.80;;;;;;;7.91;100.00;101313.44;4977756;28;20476;-69
2022/10/26 07:09:22;;;;;;;7.70;3.40;;;;;;;8.02;100.00;101318.63;4977459;28;20548;-70
2022/10/26 07:11:49;;;;;;;11.73;3.87;;;;;;;8.01;100.00;101317.00;4977311;28;20468;-69
2022/10/26 07:14:16;;;;;;;13.40;4.10;;;;;;;8.08;100.00;101314.03;4977459;28;20449;-69
2022/10/26 07:16:43;;;;;;;10.53;4.20;;;;;;;8.13;100.00;101316.75;4977154;28;20945;-69
2022/10/26 07:19:09;;;;;;;11.60;4.33;;;;;;;8.26;100.00;101318.13;4977518;28;20446;-68
2022/10/26 07:21:35;;;;;;;10.40;4.67;;;;;;;8.39;100.00;101319.53;4977216;28;20469;-69
2022/10/26 07:24:02;;;;;;;13.33;4.40;;;;;;;8.51;100.00;101326.31;4976854;28;21004;-69
2022/10/26 07:26:28;;;;;;;11.97;5.23;;;;;;;8.66;100.00;101325.50;4977245;28;20446;-69
2022/10/26 07:28:55;;;;;;;12.83;5.40;;;;;;;8.74;100.00;101319.56;4977206;28;20450;-69
2022/10/26 07:31:23;;;;;;;11.60;4.13;;;;;;;8.91;100.00;101321.19;4976872;28;20489;-70
2022/10/26 07:33:49;;;;;;;18.60;5.17;;;;;;;9.03;100.00;101324.38;4976932;28;20957;-70
2022/10/26 07:36:16;;;;;;;10.40;5.30;;;;;;;9.18;100.00;101327.06;4976910;28;20501;-69
2022/10/26 07:38:42;;;;;;;9.73;4.90;;;;;;;9.34;100.00;101331.38;4977003;28;20452;-71
2022/10/26 07:41:08;;;;;;;10.23;4.97;;;;;;;9.46;100.00;101333.75;4976524;28;21002;-69
2022/10/26 07:43:35;;;;;;;9.87;4.73;;;;;;;9.62;100.00;101317.50;4976741;28;20486;-69
2022/10/26 07:46:01;;;;;;;13.33;5.07;;;;;;;9.73;100.00;101322.56;4976818;28;20446;-70
2022/10/26 07:48:29;;;;;;;10.50;5.60;;;;;;;9.80;100.00;101325.81;4976519;28;20941;-70
2022/10/26 07:50:55;;;;;;;11.37;5.40;;;;;;;9.94;100.00;101334.13;4975857;28;20985;-70
2022/10/26 07:53:22;;;;;;;13.00;5.50;;;;;;;10.05;100.00;101322.16;4976684;28;20446;-73
2022/10/26 07:55:55;;;;;;;11.57;5.67;;;;;;;10.15;100.00;101321.31;4976738;28;20822;-73
2022/10/26 07:58:23;;;;;;;10.13;4.50;;;;;;;10.27;100.00;101329.94;4976250;28;20953;-72
2022/10/26 08:00:49;;;;;;;17.60;6.33;;;;;;;10.38;100.00;101319.03;4976572;28;20473;-70
2022/10/26 08:03:16;;;;;;;9.60;4.37;;;;;;;10.48;100.00;101319.75;4976279;28;20481;-71
2022/10/26 08:05:45;;;;;;;8.83;4.60;;;;;;;10.58;100.00;101325.09;4976051;28;20525;-71
2022/10/26 08:08:12;;;;;;;8.40;4.10;;;;;;;10.68;100.00;101326.13;4976359;28;20442;-69
2022/10/26 08:10:42;;;;;;;12.07;5.57;;;;;;;10.78;100.00;101329.53;4976263;28;20466;-71
2022/10/26 08:13:08;;;;;;;11.37;5.33;;;;;;;10.89;100.00;101335.69;4975907;28;20441;-71
2022/10/26 08:15:35;;;;;;;11.27;5.20;;;;;;;10.98;100.00;101338.56;4976209;28;20453;-71
2022/10/26 08:18:01;;;;;;;11.50;5.00;;;;;;;11.10;100.00;101344.44;4975833;28;20454;-71
2022/10/26 08:20:28;;;;;;;14.20;6.83;;;;;;;11.17;100.00;101342.22;4976052;28;20472;-71
2022/10/26 08:22:57;;;;;;;12.03;5.33;;;;;;;11.26;100.00;101345.09;4976459;28;20493;-72
2022/10/26 08:25:24;;;;;;;11.40;5.33;;;;;;;11.40;100.00;101340.63;4976418;28;20446;-70
2022/10/26 08:27:50;;;;;;;10.57;5.10;;;;;;;11.51;100.00;101333.16;4976066;28;20509;-71
2022/10/26 08:30:17;;;;;;;12.43;5.97;;;;;;;11.58;100.00;101344.47;4975444;28;20957;-71
2022/10/26 08:32:43;;;;;;;15.53;5.83;;;;;;;11.63;100.00;101345.22;4975903;28;20433;-71
2022/10/26 08:35:12;;;;;;;13.77;4.67;;;;;;;11.77;100.00;101342.63;4975499;28;20442;-71
2022/10/26 08:37:38;;;;;;;11.60;5.40;;;;;;;11.80;100.00;101346.66;4975335;28;20453;-70
2022/10/26 08:40:07;;;;;;;8.77;4.13;;;;;;;11.93;100.00;101343.28;4975696;28;20456;-72
2022/10/26 08:42:40;;;;;;;9.40;4.00;;;;;;;12.07;100.00;101338.75;4975497;28;20438;-71
2022/10/26 08:45:17;;;;;;;11.10;4.90;;;;;;;12.17;100.00;101345.94;4975628;28;20438;-72
2022/10/26 08:47:47;;;;;;;11.37;5.47;;;;;;;12.26;100.00;101341.50;4975584;28;20443;-71
2022/10/26 08:50:19;;;;;;;10.20;4.40;;;;;;;12.40;100.00;101338.03;4960778;28;20463;-70
2022/10/26 08:52:53;;;;;;;9.40;4.77;;;;;;;12.42;100.00;101343.97;4958085;28;20469;-71
2022/10/26 08:55:26;;;;;;;9.77;4.30;;;;;;;12.47;100.00;101341.16;4955901;28;20800;-72
2022/10/26 08:57:54;;;;;;;11.90;5.13;;;;;;;12.53;100.00;101342.72;4937002;29;20436;-71
2022/10/26 09:00:22;;;;;;;12.13;4.70;;;;;;;12.56;100.00;101342.13;4947970;28;20811;-71
2022/10/26 09:02:49;;;;;;;7.70;3.90;;;;;;;12.66;100.00;101333.81;4953715;28;20494;-73
2022/10/26 09:05:20;;;;;;;11.53;4.97;;;;;;;12.75;100.00;101342.06;4955322;28;20463;-71
2022/10/26 09:07:56;;;;;;;10.47;5.30;;;;;;;12.91;100.00;101345.38;4955615;28;20506;-71
2022/10/26 09:10:37;;;;;;;8.53;4.00;;;;;;;13.02;100.00;101334.03;4958352;28;20853;-72
2022/10/26 09:13:14;;;;;;;11.90;3.80;;;;;;;13.07;100.00;101344.81;4958329;28;20439;-71
2022/10/26 09:15:56;;;;;;;10.60;4.37;;;;;;;13.05;100.00;101338.84;4955855;28;20737;-71
2022/10/26 09:18:34;;;;;;;12.03;4.10;;;;;;;13.13;100.00;101337.34;4955616;28;20477;-73
2022/10/26 09:21:13;;;;;;;8.03;3.67;;;;;;;13.25;100.00;101345.88;4953745;28;20486;-71
2022/10/26 09:23:59;;;;;;;7.87;4.10;;;;;;;13.36;100.00;101344.56;4956636;28;20478;-71
2022/10/26 09:26:33;;;;;;;8.73;3.90;;;;;;;13.40;100.00;101338.53;4954923;28;20462;-71
2022/10/26 09:29:03;;;;;;;10.33;4.43;;;;;;;13.43;100.00;101341.47;4955071;28;20514;-71
2022/10/26 09:31:32;;;;;;;12.00;4.03;;;;;;;13.49;100.00;101339.44;4985906;23;20501;-68
2022/10/26 09:34:05;;;;;;;7.77;3.80;;;;;;;13.60;100.00;101340.88;4976276;28;20465;-65
2022/10/26 09:36:31;;;;;;;11.17;3.57;;;;;;;13.63;100.00;101340.25;4977286;28;20460;-65
2022/10/26 09:39:04;;;;;;;11.90;4.07;;;;;;;13.72;100.00;101343.88;4976259;28;20462;-65
2022/10/26 09:41:39;;;;;;;9.87;4.20;;;;;;;13.93;100.00;101351.63;4967156;28;20487;-65
2022/10/26 09:44:15;;;;;;;10.83;3.43;;;;;;;14.07;100.00;101349.69;4958119;28;20478;-67
2022/10/26 09:46:49;;;;;;;9.40;2.80;;;;;;;14.24;100.00;101349.84;4952901;28;20966;-70
2022/10/26 09:49:18;;;;;;;7.77;3.00;;;;;;;14.33;99.68;101347.22;4955522;28;20463;-70
2022/10/26 09:51:45;;;;;;;8.93;3.70;;;;;;;14.37;98.01;101354.47;4938405;28;20468;-69
2022/10/26 09:54:15;;;;;;;6.43;2.70;;;;;;;14.53;97.21;101359.59;4956964;28;20458;-69
2022/10/26 09:56:44;;;;;;;5.67;2.60;;;;;;;14.62;96.95;101355.81;4955170;28;20451;-70
2022/10/26 09:59:12;;;;;;;6.47;2.70;;;;;;;14.71;96.51;101358.63;4955350;28;20490;-69
2022/10/26 10:01:38;;;;;;;8.43;2.87;;;;;;;14.79;96.72;101360.59;4954915;28;21029;-69
2022/10/26 10:04:16;;;;;;;5.30;2.00;;;;;;;14.81;96.34;101358.38;4955111;28;20896;-69
2022/10/26 10:06:44;;;;;;;5.60;2.70;;;;;;;14.96;94.27;101359.09;4955262;28;20435;-69
2022/10/26 10:09:13;;;;;;;4.77;2.10;;;;;;;15.04;94.18;101361.88;4954880;28;20798;-70
2022/10/26 10:11:42;;;;;;;6.00;2.30;;;;;;;15.19;94.73;101368.09;4955046;28;20470;-70
2022/10/26 10:14:16;;;;;;;11.20;2.20;;;;;;;15.31;94.39;101374.53;4955608;28;20443;-69
2022/10/26 10:16:51;;;;;;;6.23;2.50;;;;;;;15.39;94.68;101367.53;4959361;28;20521;-70
2022/10/26 10:19:23;;;;;;;7.00;2.10;;;;;;;15.45;94.06;101370.91;4959077;28;20434;-69
2022/10/26 10:21:51;;;;;;;5.90;2.20;;;;;;;15.58;92.86;101361.81;4958894;28;20554;-69
2022/10/26 10:24:27;;;;;;;6.43;2.27;;;;;;;15.70;92.07;101364.00;4958526;28;21013;-69
2022/10/26 10:26:57;;;;;;;6.50;1.87;;;;;;;15.81;90.46;101362.59;4958867;28;20453;-69
2022/10/26 10:29:26;;;;;;;6.27;2.17;;;;;;;15.89;90.89;101372.72;4958898;29;20423;-70
2022/10/26 10:31:56;;;;;;;5.30;2.00;;;;;;;16.02;88.34;101371.78;4958582;28;20478;-69
2022/10/26 10:34:22;;;;;;;4.50;1.53;;;;;;;16.21;88.50;101368.78;4958745;28;20490;-70
2022/10/26 10:36:49;;;;;;;5.10;1.50;;;;;;;16.33;88.62;101363.47;4958737;28;20449;-69
2022/10/26 10:39:36;;;;;;;5.77;1.63;;;;;;;16.46;87.35;101366.38;4958702;28;20498;-70
2022/10/26 10:42:04;;;;;;;4.07;1.10;;;;;;;16.55;86.87;101362.50;4958516;28;20474;-70
2022/10/26 10:44:33;;;;;;;4.90;1.83;;;;;;;16.64;83.86;101357.03;4958554;28;20828;-70
2022/10/26 10:47:01;;;;;;;4.70;1.20;;;;;;;16.76;83.90;101359.16;4958241;28;20938;-70
2022/10/26 10:49:29;;;;;;;8.17;1.50;;;;;;;16.93;83.44;101369.28;4958393;28;20521;-70
2022/10/26 10:51:56;;;;;;;5.50;1.43;;;;;;;16.98;82.71;101363.63;4958504;28;20518;-69
2022/10/26 10:54:28;;;;;;;5.30;1.37;;;;;;;17.12;81.99;101361.50;4958440;28;20446;-70
2022/10/26 10:57:03;;;;;;;11.40;2.23;;;;;;;17.29;82.93;101355.97;4958347;28;20447;-70
2022/10/26 10:59:56;;;;;;;4.30;1.37;;;;;;;17.46;83.01;101368.00;4958387;28;20485;-71
2022/10/26 11:02:52;;;;;;;3.60;1.10;;;;;;;17.95;78.08;101366.50;4951450;28;20474;-71
2022/10/26 11:05:46;;;;;;;13.03;1.50;;;;;;;18.81;74.18;101370.53;4931828;28;21123;-70
2022/10/26 11:08:19;;;;;;;5.40;1.30;;;;;;;19.99;71.49;101369.00;4958096;28;20436;-70
2022/10/26 11:10:52;;;;;;;3.80;1.33;;;;;;;20.89;66.53;101377.94;4958155;28;20443;-70
2022/10/26 11:13:23;;;;;;;3.83;1.03;;;;;;;21.45;62.18;101379.84;4958081;28;20424;-70
2022/10/26 11:15:58;;;;;;;3.40;1.00;;;;;;;22.20;61.05;101379.66;4957680;28;20438;-70
2022/10/26 11:18:32;;;;;;;4.53;1.30;;;;;;;23.25;58.34;101384.16;4958064;28;20438;-70
2022/10/26 11:21:05;;;;;;;4.20;1.23;;;;;;;23.84;55.72;101382.78;4957894;28;20423;-70
2022/10/26 11:23:37;;;;;;;3.20;0.90;;;;;;;24.74;55.34;101379.25;4957900;28;20880;-70
2022/10/26 11:26:11;;;;;;;4.40;1.30;;;;;;;25.50;52.28;101376.09;4956947;28;20494;-70
2022/10/26 11:28:46;;;;;;;4.13;1.00;;;;;;;26.15;49.29;101386.44;4958112;28;20442;-71
2022/10/26 11:31:18;;;;;;;5.07;1.37;;;;;;;26.60;47.66;101381.53;4957378;28;21004;-70
2022/10/26 11:33:51;;;;;;;5.10;1.10;;;;;;;26.62;46.73;101378.38;4957783;29;20423;-71